sensor_id;sensor_type;location;lat;lon;timestamp;temperature;humidity
38788;DHT22;24536;45.488;12.238;2023-02-15T00:01:55;10.00;78.70
38788;DHT22;24536;45.488;12.238;2023-02-15T00:04:24;10.00;78.70
38788;DHT22;24536;45.488;12.238;2023-02-15T00:07:10;9.90;79.00
38788;DHT22;24536;45.488;12.238;2023-02-15T00:09:35;9.90;79.10
38788;DHT22;24536;45.488;12.238;2023-02-15T00:12:01;9.90;79.10
38788;DHT22;24536;45.488;12.238;2023-02-15T00:16:53;9.80;79.30
38788;DHT22;24536;45.488;12.238;2023-02-15T00:19:20;9.70;79.30
38788;DHT22;24536;45.488;12.238;2023-02-15T00:21:47;9.70;79.40
38788;DHT22;24536;45.488;12.238;2023-02-15T00:24:15;9.70;79.50
38788;DHT22;24536;45.488;12.238;2023-02-15T00:26:42;9.70;79.40
38788;DHT22;24536;45.488;12.238;2023-02-15T00:31:35;9.70;79.10
38788;DHT22;24536;45.488;12.238;2023-02-15T00:34:06;9.70;79.00
38788;DHT22;24536;45.488;12.238;2023-02-15T00:36:32;9.70;79.00
38788;DHT22;24536;45.488;12.238;2023-02-15T00:38:58;9.60;78.90
38788;DHT22;24536;45.488;12.238;2023-02-15T00:41:24;9.70;78.80
38788;DHT22;24536;45.488;12.238;2023-02-15T00:43:50;9.60;78.80
38788;DHT22;24536;45.488;12.238;2023-02-15T00:48:41;9.60;78.80
38788;DHT22;24536;45.488;12.238;2023-02-15T00:51:07;9.60;78.80
38788;DHT22;24536;45.488;12.238;2023-02-15T00:53:33;9.60;78.90
38788;DHT22;24536;45.488;12.238;2023-02-15T00:55:58;9.60;79.00
38788;DHT22;24536;45.488;12.238;2023-02-15T00:58:25;9.60;79.00
38788;DHT22;24536;45.488;12.238;2023-02-15T01:03:18;9.50;78.70
38788;DHT22;24536;45.488;12.238;2023-02-15T01:05:46;9.50;78.70
38788;DHT22;24536;45.488;12.238;2023-02-15T01:08:11;9.50;78.70
38788;DHT22;24536;45.488;12.238;2023-02-15T01:10:37;9.40;78.80
38788;DHT22;24536;45.488;12.238;2023-02-15T01:13:03;9.40;78.80
38788;DHT22;24536;45.488;12.238;2023-02-15T01:15:29;9.40;78.90
38788;DHT22;24536;45.488;12.238;2023-02-15T01:17:55;9.30;78.80
38788;DHT22;24536;45.488;12.238;2023-02-15T01:20:24;9.30;78.80
38788;DHT22;24536;45.488;12.238;2023-02-15T01:25:17;9.20;79.00
38788;DHT22;24536;45.488;12.238;2023-02-15T01:27:43;9.20;79.10
38788;DHT22;24536;45.488;12.238;2023-02-15T01:30:09;9.20;79.30
38788;DHT22;24536;45.488;12.238;2023-02-15T01:32:35;9.20;79.40
38788;DHT22;24536;45.488;12.238;2023-02-15T01:35:01;9.20;79.20
38788;DHT22;24536;45.488;12.238;2023-02-15T01:37:27;9.30;79.20
38788;DHT22;24536;45.488;12.238;2023-02-15T01:39:52;9.20;79.10
38788;DHT22;24536;45.488;12.238;2023-02-15T01:42:25;9.20;79.10
38788;DHT22;24536;45.488;12.238;2023-02-15T01:52:44;9.20;78.90
38788;DHT22;24536;45.488;12.238;2023-02-15T01:55:12;9.20;78.90
38788;DHT22;24536;45.488;12.238;2023-02-15T02:00:06;9.20;78.80
38788;DHT22;24536;45.488;12.238;2023-02-15T02:02:33;9.20;78.80
38788;DHT22;24536;45.488;12.238;2023-02-15T02:05:01;9.10;78.80
38788;DHT22;24536;45.488;12.238;2023-02-15T02:07:43;9.10;78.70
38788;DHT22;24536;45.488;12.238;2023-02-15T02:10:13;9.10;78.50
38788;DHT22;24536;45.488;12.238;2023-02-15T02:12:42;9.10;78.70
38788;DHT22;24536;45.488;12.238;2023-02-15T02:46:45;8.40;80.20
38788;DHT22;24536;45.488;12.238;2023-02-15T02:49:12;8.40;80.30
38788;DHT22;24536;45.488;12.238;2023-02-15T02:51:37;8.40;80.40
38788;DHT22;24536;45.488;12.238;2023-02-15T02:54:05;8.40;80.30
38788;DHT22;24536;45.488;12.238;2023-02-15T02:56:43;8.50;80.30
38788;DHT22;24536;45.488;12.238;2023-02-15T02:59:24;8.40;80.10
38788;DHT22;24536;45.488;12.238;2023-02-15T03:02:04;8.40;80.20
38788;DHT22;24536;45.488;12.238;2023-02-15T03:04:35;8.40;80.20
38788;DHT22;24536;45.488;12.238;2023-02-15T03:07:08;8.30;80.10
38788;DHT22;24536;45.488;12.238;2023-02-15T03:09:37;8.30;80.10
38788;DHT22;24536;45.488;12.238;2023-02-15T03:12:34;8.30;80.10
38788;DHT22;24536;45.488;12.238;2023-02-15T03:15:12;8.40;80.20
38788;DHT22;24536;45.488;12.238;2023-02-15T03:17:45;8.40;80.00
38788;DHT22;24536;45.488;12.238;2023-02-15T03:20:16;8.50;79.70
38788;DHT22;24536;45.488;12.238;2023-02-15T03:22:50;8.50;79.60
38788;DHT22;24536;45.488;12.238;2023-02-15T03:25:23;8.40;79.50
38788;DHT22;24536;45.488;12.238;2023-02-15T03:27:55;8.50;79.50
38788;DHT22;24536;45.488;12.238;2023-02-15T03:30:22;8.50;79.40
38788;DHT22;24536;45.488;12.238;2023-02-15T03:32:50;8.50;79.20
38788;DHT22;24536;45.488;12.238;2023-02-15T03:35:21;8.50;79.10
38788;DHT22;24536;45.488;12.238;2023-02-15T03:40:28;8.50;79.00
38788;DHT22;24536;45.488;12.238;2023-02-15T03:43:19;8.50;78.90
38788;DHT22;24536;45.488;12.238;2023-02-15T03:45:51;8.50;78.90
38788;DHT22;24536;45.488;12.238;2023-02-15T03:48:47;8.40;78.80
38788;DHT22;24536;45.488;12.238;2023-02-15T03:51:17;8.40;78.80
38788;DHT22;24536;45.488;12.238;2023-02-15T03:54:31;8.50;78.80
38788;DHT22;24536;45.488;12.238;2023-02-15T04:00:18;8.40;78.70
38788;DHT22;24536;45.488;12.238;2023-02-15T04:08:20;8.30;78.90
38788;DHT22;24536;45.488;12.238;2023-02-15T04:13:32;8.30;79.00
38788;DHT22;24536;45.488;12.238;2023-02-15T04:18:41;8.20;78.90
38788;DHT22;24536;45.488;12.238;2023-02-15T04:21:29;8.20;78.90
38788;DHT22;24536;45.488;12.238;2023-02-15T04:29:26;8.20;78.80
38788;DHT22;24536;45.488;12.238;2023-02-15T04:31:53;8.20;78.70
38788;DHT22;24536;45.488;12.238;2023-02-15T04:36:45;8.20;78.90
38788;DHT22;24536;45.488;12.238;2023-02-15T04:39:16;8.20;78.90
38788;DHT22;24536;45.488;12.238;2023-02-15T04:44:08;8.20;79.00
38788;DHT22;24536;45.488;12.238;2023-02-15T04:46:34;8.10;78.90
38788;DHT22;24536;45.488;12.238;2023-02-15T04:48:59;8.20;78.80
38788;DHT22;24536;45.488;12.238;2023-02-15T04:53:51;8.20;78.60
38788;DHT22;24536;45.488;12.238;2023-02-15T04:56:21;8.10;78.60
38788;DHT22;24536;45.488;12.238;2023-02-15T04:58:47;8.10;78.60
38788;DHT22;24536;45.488;12.238;2023-02-15T05:03:39;8.10;78.70
38788;DHT22;24536;45.488;12.238;2023-02-15T05:08:31;8.00;78.60
38788;DHT22;24536;45.488;12.238;2023-02-15T05:10:57;8.00;78.70
38788;DHT22;24536;45.488;12.238;2023-02-15T05:13:23;7.90;78.70
38788;DHT22;24536;45.488;12.238;2023-02-15T05:15:50;7.90;78.70
38788;DHT22;24536;45.488;12.238;2023-02-15T05:18:17;7.90;78.80
38788;DHT22;24536;45.488;12.238;2023-02-15T05:20:43;7.90;78.90
38788;DHT22;24536;45.488;12.238;2023-02-15T05:23:09;7.80;79.10
38788;DHT22;24536;45.488;12.238;2023-02-15T05:25:34;7.90;79.00
38788;DHT22;24536;45.488;12.238;2023-02-15T05:28:19;7.90;78.90
38788;DHT22;24536;45.488;12.238;2023-02-15T05:30:45;7.90;79.00
38788;DHT22;24536;45.488;12.238;2023-02-15T05:33:11;7.90;78.90
38788;DHT22;24536;45.488;12.238;2023-02-15T05:38:03;7.90;78.80
38788;DHT22;24536;45.488;12.238;2023-02-15T05:42:56;7.90;78.80
38788;DHT22;24536;45.488;12.238;2023-02-15T05:45:22;7.80;78.70
38788;DHT22;24536;45.488;12.238;2023-02-15T05:47:48;7.80;79.00
38788;DHT22;24536;45.488;12.238;2023-02-15T05:50:14;7.70;79.10
38788;DHT22;24536;45.488;12.238;2023-02-15T05:52:39;7.70;79.30
38788;DHT22;24536;45.488;12.238;2023-02-15T06:02:24;7.70;79.10
38788;DHT22;24536;45.488;12.238;2023-02-15T06:07:15;7.70;79.20
38788;DHT22;24536;45.488;12.238;2023-02-15T06:09:41;7.70;79.20
38788;DHT22;24536;45.488;12.238;2023-02-15T06:12:07;7.80;78.90
38788;DHT22;24536;45.488;12.238;2023-02-15T06:14:32;7.80;79.50
38788;DHT22;24536;45.488;12.238;2023-02-15T06:19:24;7.90;78.80
38788;DHT22;24536;45.488;12.238;2023-02-15T06:24:16;7.90;78.40
38788;DHT22;24536;45.488;12.238;2023-02-15T06:26:41;7.90;78.30
38788;DHT22;24536;45.488;12.238;2023-02-15T06:29:07;7.90;78.30
38788;DHT22;24536;45.488;12.238;2023-02-15T06:36:29;7.90;78.30
38788;DHT22;24536;45.488;12.238;2023-02-15T06:38:55;7.90;78.10
38788;DHT22;24536;45.488;12.238;2023-02-15T06:46:13;7.80;78.10
38788;DHT22;24536;45.488;12.238;2023-02-15T06:51:04;7.90;79.40
38788;DHT22;24536;45.488;12.238;2023-02-15T06:56:04;7.90;78.40
38788;DHT22;24536;45.488;12.238;2023-02-15T06:58:32;7.80;78.30
38788;DHT22;24536;45.488;12.238;2023-02-15T07:00:59;7.90;78.60
38788;DHT22;24536;45.488;12.238;2023-02-15T07:03:24;7.90;78.60
38788;DHT22;24536;45.488;12.238;2023-02-15T07:05:57;7.90;78.60
38788;DHT22;24536;45.488;12.238;2023-02-15T07:08:24;7.90;78.50
38788;DHT22;24536;45.488;12.238;2023-02-15T07:13:17;8.00;78.70
38788;DHT22;24536;45.488;12.238;2023-02-15T07:15:43;8.10;78.80
38788;DHT22;24536;45.488;12.238;2023-02-15T07:18:09;8.10;78.80
38788;DHT22;24536;45.488;12.238;2023-02-15T07:20:36;8.10;78.90
38788;DHT22;24536;45.488;12.238;2023-02-15T07:23:03;8.20;79.00
38788;DHT22;24536;45.488;12.238;2023-02-15T07:25:29;8.20;78.90
38788;DHT22;24536;45.488;12.238;2023-02-15T07:27:59;8.30;79.00
38788;DHT22;24536;45.488;12.238;2023-02-15T07:30:26;8.30;78.80
38788;DHT22;24536;45.488;12.238;2023-02-15T07:38:35;8.50;78.90
38788;DHT22;24536;45.488;12.238;2023-02-15T07:41:04;8.50;78.90
38788;DHT22;24536;45.488;12.238;2023-02-15T07:43:33;8.60;79.00
38788;DHT22;24536;45.488;12.238;2023-02-15T07:46:04;8.60;79.20
38788;DHT22;24536;45.488;12.238;2023-02-15T07:48:30;8.60;79.10
38788;DHT22;24536;45.488;12.238;2023-02-15T07:51:01;8.70;79.30
38788;DHT22;24536;45.488;12.238;2023-02-15T07:53:27;8.80;79.20
38788;DHT22;24536;45.488;12.238;2023-02-15T07:58:20;8.80;78.80
38788;DHT22;24536;45.488;12.238;2023-02-15T08:00:46;8.90;78.90
38788;DHT22;24536;45.488;12.238;2023-02-15T08:05:58;9.00;78.90
38788;DHT22;24536;45.488;12.238;2023-02-15T08:08:25;9.10;78.70
38788;DHT22;24536;45.488;12.238;2023-02-15T08:11:01;9.10;78.50
38788;DHT22;24536;45.488;12.238;2023-02-15T08:13:46;9.10;78.30
38788;DHT22;24536;45.488;12.238;2023-02-15T08:16:29;9.20;78.30
38788;DHT22;24536;45.488;12.238;2023-02-15T08:18:56;9.20;78.30
38788;DHT22;24536;45.488;12.238;2023-02-15T08:23:49;9.80;85.10
38788;DHT22;24536;45.488;12.238;2023-02-15T08:31:11;10.50;81.50
38788;DHT22;24536;45.488;12.238;2023-02-15T08:36:09;10.60;76.20
38788;DHT22;24536;45.488;12.238;2023-02-15T08:41:15;10.80;77.60
38788;DHT22;24536;45.488;12.238;2023-02-15T08:43:42;10.90;75.50
38788;DHT22;24536;45.488;12.238;2023-02-15T08:46:09;11.00;76.80
38788;DHT22;24536;45.488;12.238;2023-02-15T08:48:35;11.20;76.50
38788;DHT22;24536;45.488;12.238;2023-02-15T08:51:06;11.30;75.90
38788;DHT22;24536;45.488;12.238;2023-02-15T08:53:32;11.50;74.60
38788;DHT22;24536;45.488;12.238;2023-02-15T08:55:59;11.60;73.90
38788;DHT22;24536;45.488;12.238;2023-02-15T08:58:25;11.70;74.70
38788;DHT22;24536;45.488;12.238;2023-02-15T09:00:51;11.90;75.10
38788;DHT22;24536;45.488;12.238;2023-02-15T09:03:17;12.20;75.90
38788;DHT22;24536;45.488;12.238;2023-02-15T09:05:43;12.40;74.60
38788;DHT22;24536;45.488;12.238;2023-02-15T09:08:08;12.60;73.60
38788;DHT22;24536;45.488;12.238;2023-02-15T09:10:34;12.80;72.80
38788;DHT22;24536;45.488;12.238;2023-02-15T09:13:00;12.90;71.90
38788;DHT22;24536;45.488;12.238;2023-02-15T09:20:17;13.30;70.30
38788;DHT22;24536;45.488;12.238;2023-02-15T09:25:09;13.70;69.50
38788;DHT22;24536;45.488;12.238;2023-02-15T09:27:35;13.80;68.90
38788;DHT22;24536;45.488;12.238;2023-02-15T09:30:02;14.00;68.60
38788;DHT22;24536;45.488;12.238;2023-02-15T09:32:28;14.10;67.70
38788;DHT22;24536;45.488;12.238;2023-02-15T09:34:54;14.30;67.10
38788;DHT22;24536;45.488;12.238;2023-02-15T09:37:20;14.40;66.60
38788;DHT22;24536;45.488;12.238;2023-02-15T09:39:45;14.50;66.10
38788;DHT22;24536;45.488;12.238;2023-02-15T09:42:43;14.70;64.90
38788;DHT22;24536;45.488;12.238;2023-02-15T09:45:20;14.80;64.30
38788;DHT22;24536;45.488;12.238;2023-02-15T09:58:46;15.60;63.40
38788;DHT22;24536;45.488;12.238;2023-02-15T10:14:52;16.10;61.40
38788;DHT22;24536;45.488;12.238;2023-02-15T10:20:16;16.40;60.60
38788;DHT22;24536;45.488;12.238;2023-02-15T10:28:12;17.00;59.40
38788;DHT22;24536;45.488;12.238;2023-02-15T10:30:48;17.30;59.40
38788;DHT22;24536;45.488;12.238;2023-02-15T10:33:45;17.40;59.00
38788;DHT22;24536;45.488;12.238;2023-02-15T10:37:18;17.60;58.70
38788;DHT22;24536;45.488;12.238;2023-02-15T10:42:16;17.90;57.30
38788;DHT22;24536;45.488;12.238;2023-02-15T11:00:54;19.00;56.40
38788;DHT22;24536;45.488;12.238;2023-02-15T11:06:09;19.40;55.10
38788;DHT22;24536;45.488;12.238;2023-02-15T11:08:43;19.60;54.00
38788;DHT22;24536;45.488;12.238;2023-02-15T11:11:14;19.70;53.40
38788;DHT22;24536;45.488;12.238;2023-02-15T11:13:46;19.90;52.60
38788;DHT22;24536;45.488;12.238;2023-02-15T11:16:25;19.90;52.00
38788;DHT22;24536;45.488;12.238;2023-02-15T11:19:01;20.10;52.40
38788;DHT22;24536;45.488;12.238;2023-02-15T11:21:38;20.20;52.10
38788;DHT22;24536;45.488;12.238;2023-02-15T11:26:56;20.40;51.10
38788;DHT22;24536;45.488;12.238;2023-02-15T11:29:33;20.50;50.80
38788;DHT22;24536;45.488;12.238;2023-02-15T11:32:13;20.70;50.80
38788;DHT22;24536;45.488;12.238;2023-02-15T11:35:02;20.80;50.60
38788;DHT22;24536;45.488;12.238;2023-02-15T11:40:47;21.20;49.60
38788;DHT22;24536;45.488;12.238;2023-02-15T11:43:36;21.40;49.40
38788;DHT22;24536;45.488;12.238;2023-02-15T11:46:03;21.50;49.10
38788;DHT22;24536;45.488;12.238;2023-02-15T11:48:31;21.80;48.80
38788;DHT22;24536;45.488;12.238;2023-02-15T11:50:57;21.80;49.30
38788;DHT22;24536;45.488;12.238;2023-02-15T11:53:23;22.60;47.50
38788;DHT22;24536;45.488;12.238;2023-02-15T11:55:53;22.80;47.60
38788;DHT22;24536;45.488;12.238;2023-02-15T11:58:39;23.90;46.30
38788;DHT22;24536;45.488;12.238;2023-02-15T12:01:16;25.30;44.50
38788;DHT22;24536;45.488;12.238;2023-02-15T12:03:49;26.50;41.90
38788;DHT22;24536;45.488;12.238;2023-02-15T12:08:51;28.30;38.70
38788;DHT22;24536;45.488;12.238;2023-02-15T12:11:23;29.00;37.80
38788;DHT22;24536;45.488;12.238;2023-02-15T12:14:00;29.70;36.30
38788;DHT22;24536;45.488;12.238;2023-02-15T12:16:27;30.20;35.20
38788;DHT22;24536;45.488;12.238;2023-02-15T12:18:59;30.50;34.00
38788;DHT22;24536;45.488;12.238;2023-02-15T12:21:39;30.90;33.20
38788;DHT22;24536;45.488;12.238;2023-02-15T12:26:41;31.00;31.60
38788;DHT22;24536;45.488;12.238;2023-02-15T12:29:15;31.00;31.20
38788;DHT22;24536;45.488;12.238;2023-02-15T12:31:46;30.90;30.80
38788;DHT22;24536;45.488;12.238;2023-02-15T12:34:27;30.80;30.90
38788;DHT22;24536;45.488;12.238;2023-02-15T12:36:57;30.60;30.40
38788;DHT22;24536;45.488;12.238;2023-02-15T12:39:31;30.60;31.20
38788;DHT22;24536;45.488;12.238;2023-02-15T12:42:08;30.40;30.70
38788;DHT22;24536;45.488;12.238;2023-02-15T12:45:02;30.10;31.70
38788;DHT22;24536;45.488;12.238;2023-02-15T12:47:30;29.50;31.10
38788;DHT22;24536;45.488;12.238;2023-02-15T12:52:46;28.90;30.50
38788;DHT22;24536;45.488;12.238;2023-02-15T12:55:23;28.80;31.20
38788;DHT22;24536;45.488;12.238;2023-02-15T12:57:49;28.60;32.10
38788;DHT22;24536;45.488;12.238;2023-02-15T13:00:29;28.50;31.60
38788;DHT22;24536;45.488;12.238;2023-02-15T13:02:59;28.40;31.90
38788;DHT22;24536;45.488;12.238;2023-02-15T13:05:40;28.40;32.20
38788;DHT22;24536;45.488;12.238;2023-02-15T13:08:19;28.40;31.80
38788;DHT22;24536;45.488;12.238;2023-02-15T13:10:54;28.50;32.30
38788;DHT22;24536;45.488;12.238;2023-02-15T13:13:29;28.60;31.80
38788;DHT22;24536;45.488;12.238;2023-02-15T13:15:58;28.80;31.50
38788;DHT22;24536;45.488;12.238;2023-02-15T13:18:45;28.80;32.00
38788;DHT22;24536;45.488;12.238;2023-02-15T13:21:15;28.90;31.40
38788;DHT22;24536;45.488;12.238;2023-02-15T13:23:48;28.80;30.90
38788;DHT22;24536;45.488;12.238;2023-02-15T13:26:22;27.70;30.90
38788;DHT22;24536;45.488;12.238;2023-02-15T13:28:53;27.10;31.50
38788;DHT22;24536;45.488;12.238;2023-02-15T13:31:23;26.20;32.50
38788;DHT22;24536;45.488;12.238;2023-02-15T13:34:17;25.20;33.60
38788;DHT22;24536;45.488;12.238;2023-02-15T13:36:59;24.30;34.40
38788;DHT22;24536;45.488;12.238;2023-02-15T13:42:18;23.10;36.50
38788;DHT22;24536;45.488;12.238;2023-02-15T13:47:56;22.10;37.60
38788;DHT22;24536;45.488;12.238;2023-02-15T13:56:01;21.20;39.60
38788;DHT22;24536;45.488;12.238;2023-02-15T14:01:20;20.70;40.00
38788;DHT22;24536;45.488;12.238;2023-02-15T14:09:24;20.10;41.60
38788;DHT22;24536;45.488;12.238;2023-02-15T14:26:04;19.30;43.10
38788;DHT22;24536;45.488;12.238;2023-02-15T14:31:28;19.10;43.90
38788;DHT22;24536;45.488;12.238;2023-02-15T14:33:57;18.90;43.50
38788;DHT22;24536;45.488;12.238;2023-02-15T14:36:24;18.80;43.60
38788;DHT22;24536;45.488;12.238;2023-02-15T14:38:59;18.80;44.30
38788;DHT22;24536;45.488;12.238;2023-02-15T14:41:32;18.80;44.20
38788;DHT22;24536;45.488;12.238;2023-02-15T14:44:13;18.70;44.10
38788;DHT22;24536;45.488;12.238;2023-02-15T14:49:14;18.50;44.10
38788;DHT22;24536;45.488;12.238;2023-02-15T15:02:21;18.10;45.60
38788;DHT22;24536;45.488;12.238;2023-02-15T15:05:22;18.00;45.70
38788;DHT22;24536;45.488;12.238;2023-02-15T15:07:54;18.00;46.20
38788;DHT22;24536;45.488;12.238;2023-02-15T15:12:48;17.90;45.80
38788;DHT22;24536;45.488;12.238;2023-02-15T15:15:34;17.80;45.80
38788;DHT22;24536;45.488;12.238;2023-02-15T15:20:43;17.80;46.10
38788;DHT22;24536;45.488;12.238;2023-02-15T15:25:57;17.70;46.50
38788;DHT22;24536;45.488;12.238;2023-02-15T15:31:23;17.60;47.00
38788;DHT22;24536;45.488;12.238;2023-02-15T15:45:31;17.30;48.40
38788;DHT22;24536;45.488;12.238;2023-02-15T15:48:06;17.30;48.70
38788;DHT22;24536;45.488;12.238;2023-02-15T15:50:34;17.20;48.90
38788;DHT22;24536;45.488;12.238;2023-02-15T15:53:04;17.20;49.10
38788;DHT22;24536;45.488;12.238;2023-02-15T15:55:32;17.10;49.40
38788;DHT22;24536;45.488;12.238;2023-02-15T15:58:02;17.10;49.60
38788;DHT22;24536;45.488;12.238;2023-02-15T16:03:00;17.00;50.00
38788;DHT22;24536;45.488;12.238;2023-02-15T16:05:26;17.00;50.20
38788;DHT22;24536;45.488;12.238;2023-02-15T16:10:25;16.90;50.90
38788;DHT22;24536;45.488;12.238;2023-02-15T16:12:51;16.90;51.20
38788;DHT22;24536;45.488;12.238;2023-02-15T16:15:25;16.80;51.30
38788;DHT22;24536;45.488;12.238;2023-02-15T16:17:56;16.80;51.40
38788;DHT22;24536;45.488;12.238;2023-02-15T16:20:26;16.70;51.50
38788;DHT22;24536;45.488;12.238;2023-02-15T16:31:13;16.50;52.60
38788;DHT22;24536;45.488;12.238;2023-02-15T16:33:41;16.40;52.80
38788;DHT22;24536;45.488;12.238;2023-02-15T16:36:27;16.30;53.20
38788;DHT22;24536;45.488;12.238;2023-02-15T16:41:27;16.20;53.80
38788;DHT22;24536;45.488;12.238;2023-02-15T16:43:56;16.10;53.90
38788;DHT22;24536;45.488;12.238;2023-02-15T16:46:28;16.10;54.30
38788;DHT22;24536;45.488;12.238;2023-02-15T16:54:03;15.90;55.70
38788;DHT22;24536;45.488;12.238;2023-02-15T16:56:31;13.80;55.00
38788;DHT22;24536;45.488;12.238;2023-02-15T16:58:58;15.80;56.30
38788;DHT22;24536;45.488;12.238;2023-02-15T17:01:27;15.70;56.90
38788;DHT22;24536;45.488;12.238;2023-02-15T17:04:22;15.60;57.10
38788;DHT22;24536;45.488;12.238;2023-02-15T17:07:05;15.60;57.20
38788;DHT22;24536;45.488;12.238;2023-02-15T17:09:33;15.50;57.90
38788;DHT22;24536;45.488;12.238;2023-02-15T17:12:00;15.40;58.30
38788;DHT22;24536;45.488;12.238;2023-02-15T17:14:29;15.30;58.40
38788;DHT22;24536;45.488;12.238;2023-02-15T17:17:14;15.30;58.50
38788;DHT22;24536;45.488;12.238;2023-02-15T17:19:50;15.20;58.50
38788;DHT22;24536;45.488;12.238;2023-02-15T17:22:21;15.20;58.40
38788;DHT22;24536;45.488;12.238;2023-02-15T17:24:48;15.10;58.80
38788;DHT22;24536;45.488;12.238;2023-02-15T17:27:22;15.10;59.00
38788;DHT22;24536;45.488;12.238;2023-02-15T17:29:52;15.00;59.00
38788;DHT22;24536;45.488;12.238;2023-02-15T17:32:25;14.90;59.90
38788;DHT22;24536;45.488;12.238;2023-02-15T17:35:08;14.90;60.10
38788;DHT22;24536;45.488;12.238;2023-02-15T17:37:49;14.80;60.20
38788;DHT22;24536;45.488;12.238;2023-02-15T17:40:26;14.80;60.50
38788;DHT22;24536;45.488;12.238;2023-02-15T17:42:52;14.70;60.60
38788;DHT22;24536;45.488;12.238;2023-02-15T17:45:19;14.70;60.60
38788;DHT22;24536;45.488;12.238;2023-02-15T17:47:47;14.70;60.60
38788;DHT22;24536;45.488;12.238;2023-02-15T17:50:23;14.60;60.80
38788;DHT22;24536;45.488;12.238;2023-02-15T17:52:51;14.50;60.70
38788;DHT22;24536;45.488;12.238;2023-02-15T17:55:20;14.50;61.00
38788;DHT22;24536;45.488;12.238;2023-02-15T17:58:14;14.50;61.00
38788;DHT22;24536;45.488;12.238;2023-02-15T18:00:49;14.40;61.60
38788;DHT22;24536;45.488;12.238;2023-02-15T18:06:34;14.30;61.50
38788;DHT22;24536;45.488;12.238;2023-02-15T18:09:21;14.20;61.60
38788;DHT22;24536;45.488;12.238;2023-02-15T18:12:22;14.30;62.20
38788;DHT22;24536;45.488;12.238;2023-02-15T18:14:49;14.20;62.30
38788;DHT22;24536;45.488;12.238;2023-02-15T18:17:16;14.10;62.00
38788;DHT22;24536;45.488;12.238;2023-02-15T18:19:44;14.20;62.10
38788;DHT22;24536;45.488;12.238;2023-02-15T18:22:11;14.10;62.10
38788;DHT22;24536;45.488;12.238;2023-02-15T18:27:04;14.20;61.70
38788;DHT22;24536;45.488;12.238;2023-02-15T18:29:31;14.20;61.80
38788;DHT22;24536;45.488;12.238;2023-02-15T18:31:57;14.10;61.80
38788;DHT22;24536;45.488;12.238;2023-02-15T18:34:37;14.10;62.00
38788;DHT22;24536;45.488;12.238;2023-02-15T18:37:09;14.10;62.00
38788;DHT22;24536;45.488;12.238;2023-02-15T18:39:50;14.00;62.50
38788;DHT22;24536;45.488;12.238;2023-02-15T18:45:18;13.90;62.20
38788;DHT22;24536;45.488;12.238;2023-02-15T18:47:45;13.90;62.50
38788;DHT22;24536;45.488;12.238;2023-02-15T18:50:16;13.80;62.10
38788;DHT22;24536;45.488;12.238;2023-02-15T18:52:45;13.70;62.10
38788;DHT22;24536;45.488;12.238;2023-02-15T18:55:19;13.70;62.10
38788;DHT22;24536;45.488;12.238;2023-02-15T18:57:46;13.70;62.20
38788;DHT22;24536;45.488;12.238;2023-02-15T19:00:21;13.60;62.00
38788;DHT22;24536;45.488;12.238;2023-02-15T19:02:47;13.60;62.10
38788;DHT22;24536;45.488;12.238;2023-02-15T19:05:13;13.60;62.20
38788;DHT22;24536;45.488;12.238;2023-02-15T19:07:41;13.70;62.60
38788;DHT22;24536;45.488;12.238;2023-02-15T19:10:16;13.60;62.60
38788;DHT22;24536;45.488;12.238;2023-02-15T19:12:43;13.60;62.60
38788;DHT22;24536;45.488;12.238;2023-02-15T19:15:23;13.60;62.80
38788;DHT22;24536;45.488;12.238;2023-02-15T19:17:50;13.60;63.00
38788;DHT22;24536;45.488;12.238;2023-02-15T19:20:20;13.50;63.00
38788;DHT22;24536;45.488;12.238;2023-02-15T19:22:47;13.50;63.40
38788;DHT22;24536;45.488;12.238;2023-02-15T19:25:23;13.40;63.50
38788;DHT22;24536;45.488;12.238;2023-02-15T19:27:49;13.40;63.60
38788;DHT22;24536;45.488;12.238;2023-02-15T19:30:23;13.40;63.70
38788;DHT22;24536;45.488;12.238;2023-02-15T19:32:52;13.40;64.10
38788;DHT22;24536;45.488;12.238;2023-02-15T19:35:21;13.30;64.60
38788;DHT22;24536;45.488;12.238;2023-02-15T19:37:54;13.30;64.70
38788;DHT22;24536;45.488;12.238;2023-02-15T19:40:26;13.20;65.20
38788;DHT22;24536;45.488;12.238;2023-02-15T19:42:52;13.10;65.50
38788;DHT22;24536;45.488;12.238;2023-02-15T19:45:23;13.10;65.90
38788;DHT22;24536;45.488;12.238;2023-02-15T19:50:21;13.00;66.00
38788;DHT22;24536;45.488;12.238;2023-02-15T19:52:48;13.10;66.10
38788;DHT22;24536;45.488;12.238;2023-02-15T19:55:29;13.00;66.10
38788;DHT22;24536;45.488;12.238;2023-02-15T19:57:57;13.00;66.20
38788;DHT22;24536;45.488;12.238;2023-02-15T20:00:25;12.90;66.40
38788;DHT22;24536;45.488;12.238;2023-02-15T20:02:52;12.90;66.60
38788;DHT22;24536;45.488;12.238;2023-02-15T20:05:18;12.90;66.80
38788;DHT22;24536;45.488;12.238;2023-02-15T20:07:47;12.90;66.90
38788;DHT22;24536;45.488;12.238;2023-02-15T20:10:26;12.80;66.90
38788;DHT22;24536;45.488;12.238;2023-02-15T20:12:52;12.80;67.10
38788;DHT22;24536;45.488;12.238;2023-02-15T20:15:22;12.80;67.50
38788;DHT22;24536;45.488;12.238;2023-02-15T20:17:48;12.80;67.70
38788;DHT22;24536;45.488;12.238;2023-02-15T20:20:15;12.80;67.70
38788;DHT22;24536;45.488;12.238;2023-02-15T20:22:41;12.80;67.70
38788;DHT22;24536;45.488;12.238;2023-02-15T20:25:23;12.80;67.90
38788;DHT22;24536;45.488;12.238;2023-02-15T20:27:50;12.70;68.10
38788;DHT22;24536;45.488;12.238;2023-02-15T20:30:18;12.70;68.20
38788;DHT22;24536;45.488;12.238;2023-02-15T20:32:44;12.70;68.70
38788;DHT22;24536;45.488;12.238;2023-02-15T20:35:15;12.60;69.00
38788;DHT22;24536;45.488;12.238;2023-02-15T20:37:41;12.60;69.30
38788;DHT22;24536;45.488;12.238;2023-02-15T20:40:24;12.60;69.50
38788;DHT22;24536;45.488;12.238;2023-02-15T20:42:51;12.60;69.70
38788;DHT22;24536;45.488;12.238;2023-02-15T20:45:24;12.60;69.80
38788;DHT22;24536;45.488;12.238;2023-02-15T20:47:51;12.50;69.70
38788;DHT22;24536;45.488;12.238;2023-02-15T20:50:23;12.50;69.80
38788;DHT22;24536;45.488;12.238;2023-02-15T20:52:51;12.50;70.00
38788;DHT22;24536;45.488;12.238;2023-02-15T20:55:29;12.50;70.00
38788;DHT22;24536;45.488;12.238;2023-02-15T20:57:55;12.50;70.30
38788;DHT22;24536;45.488;12.238;2023-02-15T21:00:23;12.50;70.80
38788;DHT22;24536;45.488;12.238;2023-02-15T21:02:53;12.40;70.70
38788;DHT22;24536;45.488;12.238;2023-02-15T21:05:21;12.50;70.90
38788;DHT22;24536;45.488;12.238;2023-02-15T21:07:48;12.40;71.10
38788;DHT22;24536;45.488;12.238;2023-02-15T21:10:16;12.40;71.70
38788;DHT22;24536;45.488;12.238;2023-02-15T21:12:42;12.30;71.60
38788;DHT22;24536;45.488;12.238;2023-02-15T21:15:29;12.30;72.20